Time;durP1;ratioP1;P1;durP2;ratioP2;P2;SDS_P1;SDS_P2;PMS_P1;PMS_P2;Temp;Humidity;BMP_temperature;BMP_pressure;BME280_temperature;BME280_humidity;BME280_pressure;Samples;Min_cycle;Max_cycle;Signal;HPM_P1;HPM_P2
2020/12/25 08:54:29;;;;;;;1.20;0.53;;;5.70;99.90;;;;;;4877554;29;20229;-73
2020/12/25 08:56:55;;;;;;;1.07;0.50;;;5.90;99.90;;;;;;4880061;29;20290;-74
2020/12/25 08:59:22;;;;;;;2.97;0.70;;;5.90;99.90;;;;;;4879436;29;20258;-74
2020/12/25 09:01:49;;;;;;;1.47;0.63;;;6.00;99.90;;;;;;4861738;29;20240;-74
2020/12/25 09:04:18;;;;;;;3.60;0.70;;;6.00;99.90;;;;;;4861368;29;20238;-73
2020/12/25 09:06:45;;;;;;;2.07;0.60;;;6.00;99.90;;;;;;4861560;29;20216;-74
2020/12/25 09:09:11;;;;;;;0.50;0.30;;;6.10;99.90;;;;;;4861730;29;20232;-74
2020/12/25 09:11:38;;;;;;;3.27;0.60;;;6.20;99.90;;;;;;4861475;29;20224;-74
2020/12/25 09:14:04;;;;;;;2.20;0.50;;;6.10;99.90;;;;;;4861145;29;20212;-73
2020/12/25 09:16:30;;;;;;;2.83;0.50;;;6.00;99.90;;;;;;4861350;29;20219;-74
2020/12/25 09:18:59;;;;;;;1.93;0.40;;;6.00;99.90;;;;;;4861442;29;20741;-74
2020/12/25 09:21:27;;;;;;;1.20;0.40;;;5.90;99.90;;;;;;4860957;29;20244;-75
2020/12/25 09:23:54;;;;;;;0.87;0.30;;;5.70;99.90;;;;;;4861354;29;20219;-74
2020/12/25 09:26:20;;;;;;;3.13;0.30;;;5.70;99.90;;;;;;4861732;29;20223;-74
2020/12/25 09:28:47;;;;;;;5.03;0.50;;;5.80;99.90;;;;;;4861676;29;20208;-74
2020/12/25 09:31:14;;;;;;;1.23;0.40;;;5.90;99.90;;;;;;4861570;29;20215;-74
2020/12/25 09:33:41;;;;;;;0.50;0.27;;;6.00;99.90;;;;;;4861388;29;20208;-74
2020/12/25 09:36:08;;;;;;;4.13;0.93;;;6.20;99.90;;;;;;4861616;29;20242;-74
2020/12/25 09:38:36;;;;;;;4.43;0.47;;;6.30;99.90;;;;;;4861412;29;20659;-74
2020/12/25 09:41:02;;;;;;;2.60;0.40;;;6.40;99.90;;;;;;4861469;29;20566;-74
2020/12/25 09:43:29;;;;;;;4.10;0.90;;;6.50;99.90;;;;;;4861290;29;20702;-73
2020/12/25 09:45:56;;;;;;;1.77;0.50;;;6.70;99.90;;;;;;4861326;29;20260;-73
2020/12/25 09:48:23;;;;;;;2.33;0.30;;;6.70;99.90;;;;;;4861576;29;20215;-74
2020/12/25 09:50:49;;;;;;;1.70;0.57;;;6.80;99.90;;;;;;4861483;29;20236;-74
2020/12/25 09:53:15;;;;;;;0.60;0.37;;;6.80;99.90;;;;;;4861393;29;20223;-74
2020/12/25 09:55:43;;;;;;;3.27;0.60;;;6.80;99.90;;;;;;4861513;29;20212;-73
2020/12/25 09:58:09;;;;;;;2.80;0.60;;;6.90;99.90;;;;;;4861177;29;20219;-73
2020/12/25 10:00:35;;;;;;;3.50;0.60;;;6.90;99.90;;;;;;4861126;29;20240;-74
2020/12/25 10:03:03;;;;;;;2.60;0.40;;;6.90;99.90;;;;;;4861163;29;20247;-73
2020/12/25 10:05:29;;;;;;;2.20;0.50;;;6.70;99.90;;;;;;4861176;29;20667;-73
2020/12/25 10:07:56;;;;;;;3.97;0.30;;;6.80;99.90;;;;;;4861282;29;20220;-73
2020/12/25 10:10:23;;;;;;;1.33;0.50;;;6.70;99.90;;;;;;4860864;29;20232;-74
2020/12/25 10:12:50;;;;;;;1.60;0.53;;;6.60;99.90;;;;;;4861263;29;20234;-73
2020/12/25 10:15:17;;;;;;;3.33;0.60;;;6.60;99.90;;;;;;4860904;29;20216;-73
2020/12/25 10:17:43;;;;;;;2.07;0.50;;;6.70;99.90;;;;;;4861080;29;20212;-73
2020/12/25 10:20:10;;;;;;;4.87;0.67;;;6.70;99.90;;;;;;4860707;29;20238;-73
2020/12/25 10:22:37;;;;;;;2.17;0.60;;;6.60;99.90;;;;;;4860972;29;20235;-74
2020/12/25 10:25:04;;;;;;;1.03;0.50;;;6.60;99.90;;;;;;4860862;29;20216;-75
2020/12/25 10:27:30;;;;;;;2.53;0.40;;;6.50;99.90;;;;;;4871469;29;20211;-75
2020/12/25 10:29:57;;;;;;;2.30;0.73;;;6.50;99.90;;;;;;4867181;29;20235;-73
2020/12/25 10:32:23;;;;;;;3.50;0.60;;;6.70;99.90;;;;;;4859987;29;20212;-73
2020/12/25 10:34:49;;;;;;;0.80;0.50;;;6.70;99.90;;;;;;4860275;29;20226;-73
2020/12/25 10:37:16;;;;;;;2.30;0.60;;;6.70;99.90;;;;;;4860106;29;20216;-73
2020/12/25 10:39:42;;;;;;;5.40;0.63;;;6.50;99.90;;;;;;4859978;29;20239;-72
2020/12/25 10:42:09;;;;;;;2.30;0.53;;;6.30;99.90;;;;;;4860211;29;20599;-73
2020/12/25 10:44:35;;;;;;;3.53;0.77;;;6.40;99.90;;;;;;4859798;29;20591;-73
2020/12/25 10:47:02;;;;;;;3.53;0.70;;;6.40;99.90;;;;;;4860217;29;20216;-73
2020/12/25 10:49:28;;;;;;;3.60;0.60;;;6.40;99.90;;;;;;4860431;29;20596;-73
2020/12/25 10:51:54;;;;;;;3.87;0.53;;;6.50;99.90;;;;;;4860011;29;20583;-73
2020/12/25 10:54:21;;;;;;;2.20;0.90;;;6.50;99.90;;;;;;4860547;29;20556;-73
2020/12/25 10:56:48;;;;;;;2.80;0.57;;;6.60;99.90;;;;;;4860676;29;20575;-73
2020/12/25 10:59:14;;;;;;;2.70;0.53;;;6.50;99.90;;;;;;4860516;29;20637;-74
2020/12/25 11:01:40;;;;;;;3.87;0.70;;;6.50;99.90;;;;;;4861693;29;20212;-74
2020/12/25 11:04:06;;;;;;;3.40;0.73;;;6.50;99.90;;;;;;4864066;29;20211;-74
2020/12/25 11:06:34;;;;;;;5.53;0.80;;;6.50;99.90;;;;;;4864034;29;20215;-73
2020/12/25 11:09:01;;;;;;;1.50;0.73;;;6.60;99.90;;;;;;4863937;29;20231;-74
2020/12/25 11:11:30;;;;;;;0.73;0.50;;;6.70;99.90;;;;;;4863831;29;20282;-73
2020/12/25 11:13:57;;;;;;;7.40;0.87;;;6.70;99.90;;;;;;4863138;29;20241;-74
2020/12/25 11:16:25;;;;;;;2.63;0.60;;;6.80;99.90;;;;;;4863850;29;20575;-74
2020/12/25 11:18:52;;;;;;;5.03;0.50;;;6.90;99.90;;;;;;4863840;29;20284;-73
2020/12/25 11:21:19;;;;;;;3.13;0.63;;;7.00;99.90;;;;;;4863880;29;20248;-73
2020/12/25 11:23:45;;;;;;;1.70;0.90;;;7.20;99.90;;;;;;4863507;29;20235;-73
2020/12/25 11:26:19;;;;;;;4.37;0.57;;;7.30;99.90;;;;;;4864139;29;20215;-73
2020/12/25 11:28:46;;;;;;;2.70;0.60;;;7.20;99.90;;;;;;4863991;29;20219;-73
2020/12/25 11:31:12;;;;;;;4.60;0.47;;;7.10;99.90;;;;;;4863628;29;20216;-74
2020/12/25 11:33:38;;;;;;;1.97;0.60;;;7.10;99.90;;;;;;4863740;29;20223;-74
2020/12/25 11:36:05;;;;;;;2.90;0.70;;;7.20;99.90;;;;;;4863644;29;20367;-74
2020/12/25 11:38:31;;;;;;;7.73;1.03;;;7.20;99.90;;;;;;4863433;29;20216;-73
2020/12/25 11:40:57;;;;;;;5.90;0.67;;;7.30;99.90;;;;;;4863729;29;20216;-73
2020/12/25 11:43:23;;;;;;;3.90;0.50;;;7.40;99.90;;;;;;4863566;29;20247;-73
2020/12/25 11:45:50;;;;;;;1.97;0.60;;;7.30;99.90;;;;;;4861036;29;20551;-73
2020/12/25 11:48:17;;;;;;;3.00;0.80;;;7.40;99.90;;;;;;4871957;29;20215;-72
2020/12/25 11:50:43;;;;;;;2.80;0.53;;;7.40;99.90;;;;;;4864433;29;20730;-73
2020/12/25 11:53:09;;;;;;;1.93;0.77;;;7.40;99.90;;;;;;4873722;29;20223;-72
2020/12/25 11:55:35;;;;;;;1.33;0.50;;;7.40;99.90;;;;;;4869786;29;20219;-72
2020/12/25 11:58:02;;;;;;;2.07;0.40;;;7.40;99.90;;;;;;4867815;29;20547;-73
2020/12/25 12:00:28;;;;;;;1.60;0.60;;;7.50;99.90;;;;;;4868446;29;20631;-72
2020/12/25 12:02:55;;;;;;;2.40;0.83;;;7.50;99.90;;;;;;4872473;29;20243;-72
2020/12/25 12:05:21;;;;;;;2.47;0.43;;;7.50;99.90;;;;;;4873124;29;20204;-72
2020/12/25 12:07:47;;;;;;;2.77;0.70;;;7.50;99.90;;;;;;4868463;29;20300;-73
2020/12/25 12:10:14;;;;;;;4.23;0.80;;;7.60;99.90;;;;;;4874679;29;20231;-73
2020/12/25 12:12:40;;;;;;;5.43;0.97;;;7.60;99.90;;;;;;4863768;29;20224;-73
2020/12/25 12:15:06;;;;;;;4.70;0.50;;;7.60;99.90;;;;;;4872106;29;20221;-72
2020/12/25 12:17:32;;;;;;;0.83;0.40;;;7.60;99.90;;;;;;4870970;29;20247;-72
2020/12/25 12:19:59;;;;;;;3.80;0.60;;;7.60;99.90;;;;;;4871515;29;20239;-72
2020/12/25 12:22:25;;;;;;;5.70;0.70;;;7.50;99.90;;;;;;4872429;29;20236;-72
2020/12/25 12:24:51;;;;;;;3.47;0.60;;;7.40;99.90;;;;;;4875613;29;20223;-74
2020/12/25 12:27:18;;;;;;;2.70;0.53;;;7.30;99.90;;;;;;4875268;29;20219;-74
2020/12/25 12:29:44;;;;;;;1.27;0.43;;;7.20;99.90;;;;;;4871571;29;20228;-73
2020/12/25 12:32:11;;;;;;;1.60;0.60;;;7.10;99.90;;;;;;4871517;29;20219;-74
2020/12/25 12:34:37;;;;;;;4.33;0.90;;;7.10;99.90;;;;;;4870348;29;20218;-73
2020/12/25 12:37:05;;;;;;;0.90;0.40;;;7.20;99.90;;;;;;4868426;29;20675;-74
2020/12/25 12:39:31;;;;;;;3.40;0.40;;;7.10;99.90;;;;;;4867737;29;20238;-75
2020/12/25 12:41:57;;;;;;;3.43;0.50;;;7.00;99.90;;;;;;4868125;29;20219;-73
2020/12/25 12:44:24;;;;;;;1.77;0.50;;;7.00;99.90;;;;;;4867257;29;20615;-72
2020/12/25 12:46:53;;;;;;;3.67;0.90;;;7.20;99.90;;;;;;4869333;29;20215;-74
2020/12/25 12:49:19;;;;;;;2.33;0.73;;;7.20;99.90;;;;;;4864228;29;20263;-74
2020/12/25 12:51:45;;;;;;;4.03;0.57;;;7.30;99.90;;;;;;4870656;29;20595;-72
2020/12/25 12:54:12;;;;;;;2.07;0.60;;;7.40;99.90;;;;;;4870440;29;20215;-72
2020/12/25 12:56:39;;;;;;;2.43;0.53;;;7.60;99.90;;;;;;4870148;29;20680;-72
2020/12/25 12:59:05;;;;;;;2.93;0.60;;;7.80;99.90;;;;;;4873447;29;20569;-72
2020/12/25 13:01:31;;;;;;;1.37;0.47;;;7.90;99.90;;;;;;4867058;29;20220;-72
2020/12/25 13:03:57;;;;;;;2.77;0.47;;;7.90;99.90;;;;;;4867526;29;20246;-72
2020/12/25 13:06:24;;;;;;;2.50;0.67;;;7.90;99.90;;;;;;4867967;29;20216;-72
2020/12/25 13:08:50;;;;;;;0.60;0.40;;;8.00;99.90;;;;;;4870317;29;20239;-72
2020/12/25 13:11:24;;;;;;;0.43;0.20;;;8.10;99.90;;;;;;4878416;29;20218;-72
2020/12/25 13:13:51;;;;;;;0.97;0.30;;;8.00;99.90;;;;;;4875178;29;20671;-72
2020/12/25 13:16:20;;;;;;;0.83;0.27;;;8.00;99.90;;;;;;4867239;29;20208;-72
2020/12/25 13:18:46;;;;;;;2.97;0.47;;;8.10;99.90;;;;;;4869848;29;20224;-72
2020/12/25 13:21:19;;;;;;;1.77;0.60;;;8.10;99.90;;;;;;4878753;29;20599;-72
2020/12/25 13:23:45;;;;;;;2.17;0.63;;;8.00;99.90;;;;;;4867407;29;20243;-72
2020/12/25 13:26:11;;;;;;;1.77;0.60;;;8.00;99.90;;;;;;4865285;29;20211;-72
2020/12/25 13:28:38;;;;;;;7.27;0.63;;;7.80;99.90;;;;;;4868529;29;20612;-72
2020/12/25 13:31:04;;;;;;;1.90;0.50;;;7.70;99.90;;;;;;4866998;29;20220;-72
2020/12/25 13:33:32;;;;;;;1.90;0.67;;;7.60;99.90;;;;;;4867209;29;20220;-73
2020/12/25 13:35:58;;;;;;;2.20;0.63;;;7.40;99.90;;;;;;4871383;29;20238;-72
2020/12/25 13:38:24;;;;;;;1.60;0.40;;;7.30;99.90;;;;;;4877061;29;20693;-72
2020/12/25 13:40:51;;;;;;;2.67;0.30;;;7.10;99.90;;;;;;4867407;29;20236;-72
2020/12/25 13:43:17;;;;;;;2.90;0.37;;;7.10;99.90;;;;;;4865892;29;20239;-72
2020/12/25 13:45:44;;;;;;;2.80;0.60;;;7.10;99.90;;;;;;4868529;29;20224;-73
2020/12/25 13:48:10;;;;;;;1.43;0.40;;;7.00;99.90;;;;;;4879831;29;20211;-73
2020/12/25 13:50:38;;;;;;;0.47;0.30;;;6.90;99.90;;;;;;4879239;29;20235;-73
2020/12/25 13:53:05;;;;;;;1.07;0.43;;;6.80;99.90;;;;;;4879760;29;20222;-73
2020/12/25 13:55:31;;;;;;;3.73;0.40;;;6.80;99.90;;;;;;4879766;29;20218;-76
2020/12/25 13:57:57;;;;;;;3.70;0.63;;;6.90;99.90;;;;;;4880048;29;20242;-73
2020/12/25 14:00:23;;;;;;;0.90;0.30;;;6.90;99.90;;;;;;4879710;29;20269;-73
2020/12/25 14:02:50;;;;;;;1.97;0.30;;;6.90;99.90;;;;;;4879645;29;20235;-73
2020/12/25 14:05:16;;;;;;;1.20;0.57;;;6.90;99.90;;;;;;4879466;29;20234;-74
2020/12/25 14:07:42;;;;;;;2.53;0.40;;;6.80;99.90;;;;;;4879381;29;20240;-73
2020/12/25 14:10:09;;;;;;;1.50;0.53;;;6.70;99.90;;;;;;4879177;29;20591;-73
2020/12/25 14:12:35;;;;;;;1.37;0.60;;;6.70;99.90;;;;;;4879489;29;20222;-74
2020/12/25 14:15:01;;;;;;;0.50;0.40;;;6.70;99.90;;;;;;4879496;29;20222;-74
2020/12/25 14:17:27;;;;;;;3.37;0.70;;;6.70;99.90;;;;;;4879591;29;20215;-74
2020/12/25 14:19:57;;;;;;;0.77;0.40;;;6.70;99.90;;;;;;4879575;29;20591;-73
2020/12/25 14:22:24;;;;;;;2.53;0.40;;;6.60;99.90;;;;;;4879388;29;20278;-73
2020/12/25 14:24:50;;;;;;;1.23;0.63;;;6.70;99.90;;;;;;4878955;29;20667;-73
2020/12/25 14:27:18;;;;;;;0.80;0.50;;;6.70;99.90;;;;;;4879064;29;20207;-73
2020/12/25 14:29:44;;;;;;;1.00;0.40;;;6.70;99.90;;;;;;4879074;29;20706;-74
2020/12/25 14:32:10;;;;;;;0.97;0.57;;;6.70;99.90;;;;;;4879189;29;20703;-72
2020/12/25 14:34:36;;;;;;;1.73;0.50;;;6.70;99.90;;;;;;4879480;29;20207;-72
2020/12/25 14:37:03;;;;;;;1.67;0.90;;;6.80;99.90;;;;;;4878459;29;20211;-72
2020/12/25 14:39:29;;;;;;;3.80;1.07;;;6.90;99.90;;;;;;4879173;29;20277;-72
2020/12/25 14:42:00;;;;;;;1.33;0.67;;;6.90;99.90;;;;;;4879174;29;20219;-72
2020/12/25 14:44:26;;;;;;;1.17;0.47;;;7.00;99.90;;;;;;4879194;29;20245;-72
2020/12/25 14:46:52;;;;;;;3.13;0.73;;;7.00;99.90;;;;;;4879008;29;20221;-72
2020/12/25 14:49:18;;;;;;;1.80;1.00;;;7.10;99.90;;;;;;4878754;29;20235;-72
2020/12/25 14:54:19;;;;;;;1.13;0.40;;;7.20;99.90;;;;;;4915324;29;20225;-71
2020/12/25 14:56:45;;;;;;;3.07;0.63;;;7.20;99.90;;;;;;4916981;29;20209;-71
2020/12/25 14:59:12;;;;;;;4.87;1.03;;;7.20;99.90;;;;;;4916670;29;20230;-71
2020/12/25 15:01:38;;;;;;;1.33;0.50;;;7.20;99.90;;;;;;4916708;29;20211;-70
2020/12/25 15:04:05;;;;;;;3.57;0.70;;;7.10;99.90;;;;;;4916572;29;20230;-71
2020/12/25 15:06:32;;;;;;;2.57;0.70;;;7.20;99.90;;;;;;4916555;29;20213;-71
2020/12/25 15:08:58;;;;;;;0.97;0.60;;;7.20;99.90;;;;;;4916257;29;20229;-72
2020/12/25 15:11:26;;;;;;;1.77;0.87;;;7.10;99.90;;;;;;4916387;29;20210;-71
2020/12/25 15:13:53;;;;;;;2.47;1.00;;;7.10;99.90;;;;;;4916338;29;20213;-71
2020/12/25 15:16:20;;;;;;;1.60;0.73;;;7.10;99.90;;;;;;4916426;29;20218;-72
2020/12/25 15:18:47;;;;;;;2.93;1.07;;;7.10;99.90;;;;;;4916407;29;20218;-72
2020/12/25 15:21:14;;;;;;;2.23;0.90;;;7.00;99.90;;;;;;4916449;29;20245;-71
2020/12/25 15:23:40;;;;;;;2.03;0.83;;;7.00;99.90;;;;;;4916299;29;20241;-71
2020/12/25 15:26:07;;;;;;;1.80;1.07;;;6.80;99.90;;;;;;4916719;29;20218;-72
2020/12/25 15:28:34;;;;;;;4.47;1.67;;;6.80;99.90;;;;;;4916484;29;20214;-71
2020/12/25 15:31:00;;;;;;;1.90;1.00;;;6.70;99.90;;;;;;4916280;29;20206;-71
2020/12/25 15:33:27;;;;;;;4.80;0.77;;;6.80;99.90;;;;;;4914660;29;20226;-71
2020/12/25 15:35:54;;;;;;;1.90;0.93;;;6.80;99.90;;;;;;4915883;29;20214;-71
2020/12/25 15:38:21;;;;;;;1.63;0.80;;;6.80;99.90;;;;;;4915954;29;20213;-71
2020/12/25 15:40:48;;;;;;;2.47;0.80;;;6.90;99.90;;;;;;4916042;29;20261;-71
2020/12/25 15:43:15;;;;;;;3.30;1.07;;;6.90;99.90;;;;;;4915775;29;20237;-71
2020/12/25 15:45:42;;;;;;;1.17;0.80;;;6.80;99.90;;;;;;4915816;29;20210;-71
2020/12/25 15:48:08;;;;;;;5.00;1.50;;;6.80;99.90;;;;;;4917524;29;20229;-71
2020/12/25 15:50:36;;;;;;;1.03;0.70;;;6.80;99.90;;;;;;4919534;29;20236;-71
2020/12/25 15:53:02;;;;;;;2.43;0.90;;;6.70;99.90;;;;;;4918812;29;20217;-71
2020/12/25 15:55:28;;;;;;;3.57;1.60;;;6.60;99.90;;;;;;4918854;29;20236;-71
2020/12/25 15:57:54;;;;;;;2.43;1.47;;;6.50;99.90;;;;;;4919027;29;20217;-71
2020/12/25 16:00:22;;;;;;;4.40;1.47;;;6.40;99.90;;;;;;4918803;29;20284;-71
2020/12/25 16:02:50;;;;;;;4.30;1.60;;;6.30;99.90;;;;;;4918986;29;20604;-71
2020/12/25 16:05:18;;;;;;;2.30;1.43;;;6.30;99.90;;;;;;4918953;29;20217;-71
2020/12/25 16:07:44;;;;;;;5.00;1.20;;;6.30;99.90;;;;;;4918844;29;20209;-71
2020/12/25 16:10:11;;;;;;;4.83;2.23;;;6.20;99.90;;;;;;4918603;29;20236;-71
2020/12/25 16:12:38;;;;;;;6.40;2.87;;;6.40;99.90;;;;;;4918561;29;20673;-71
2020/12/25 16:15:05;;;;;;;7.97;3.10;;;6.50;99.90;;;;;;4918814;29;20214;-71
2020/12/25 16:17:31;;;;;;;5.67;2.17;;;6.50;99.90;;;;;;4918653;29;20214;-72
2020/12/25 16:19:58;;;;;;;4.80;2.30;;;6.40;99.90;;;;;;4918726;29;20229;-72
2020/12/25 16:22:24;;;;;;;4.50;1.80;;;6.40;99.90;;;;;;4918751;29;20214;-71
2020/12/25 16:24:51;;;;;;;2.30;1.50;;;6.40;99.90;;;;;;4918304;29;20210;-72
2020/12/25 16:27:17;;;;;;;5.67;1.77;;;6.30;99.90;;;;;;4918630;29;20221;-73
2020/12/25 16:29:43;;;;;;;3.43;1.80;;;6.20;99.90;;;;;;4918482;29;20234;-72
2020/12/25 16:32:09;;;;;;;3.63;1.70;;;6.10;99.90;;;;;;4918349;29;20209;-72
2020/12/25 16:34:36;;;;;;;6.10;2.60;;;5.90;99.90;;;;;;4918842;29;20236;-71
2020/12/25 16:37:03;;;;;;;4.23;2.40;;;5.90;99.90;;;;;;4918585;29;20268;-72
2020/12/25 16:39:29;;;;;;;6.83;2.00;;;5.90;99.90;;;;;;4918310;29;20225;-72
2020/12/25 16:41:55;;;;;;;9.20;3.03;;;5.80;99.90;;;;;;4918674;29;20569;-73
2020/12/25 16:44:21;;;;;;;11.23;4.87;;;5.70;99.90;;;;;;4918113;29;20237;-72
2020/12/25 16:46:48;;;;;;;23.03;8.83;;;5.80;99.90;;;;;;4918070;29;20213;-72
2020/12/25 16:49:16;;;;;;;8.27;3.27;;;6.00;99.90;;;;;;4918591;29;20292;-72
2020/12/25 16:51:44;;;;;;;3.33;1.90;;;6.20;99.90;;;;;;4918455;29;20213;-73
2020/12/25 16:54:11;;;;;;;3.80;1.40;;;6.00;99.90;;;;;;4918058;29;20578;-72
2020/12/25 16:56:38;;;;;;;4.07;2.00;;;5.70;99.90;;;;;;4918232;29;20303;-72
2020/12/25 16:59:05;;;;;;;4.17;2.07;;;5.50;99.90;;;;;;4917157;29;20272;-72
2020/12/25 17:01:31;;;;;;;5.27;1.70;;;5.50;99.90;;;;;;4917968;29;20214;-72
2020/12/25 17:03:57;;;;;;;6.77;2.37;;;5.40;99.90;;;;;;4918148;29;20232;-71
2020/12/25 17:06:24;;;;;;;4.03;1.53;;;5.30;99.90;;;;;;4918308;29;20229;-71
2020/12/25 17:08:51;;;;;;;5.67;2.20;;;5.20;99.90;;;;;;4917977;29;20245;-71
2020/12/25 17:11:18;;;;;;;4.23;2.00;;;5.10;99.90;;;;;;4918000;29;20210;-72
2020/12/25 17:13:44;;;;;;;4.47;2.17;;;5.00;99.90;;;;;;4917897;29;20214;-71
2020/12/25 17:16:11;;;;;;;4.47;1.60;;;5.00;99.90;;;;;;4918142;29;20216;-71
2020/12/25 17:18:38;;;;;;;3.60;1.80;;;5.20;99.90;;;;;;4918059;29;20214;-72
2020/12/25 17:21:07;;;;;;;5.43;2.20;;;5.20;99.90;;;;;;4917801;29;20212;-71
2020/12/25 17:23:33;;;;;;;5.70;2.57;;;5.20;99.90;;;;;;4917661;29;20237;-71
2020/12/25 17:25:59;;;;;;;8.07;2.93;;;5.30;99.90;;;;;;4917796;29;20217;-71
2020/12/25 17:28:26;;;;;;;5.53;2.33;;;5.20;99.90;;;;;;4917598;29;20213;-72
2020/12/25 17:30:52;;;;;;;4.20;1.80;;;5.30;99.90;;;;;;4917723;29;20245;-72
2020/12/25 17:33:19;;;;;;;5.13;2.63;;;5.30;99.90;;;;;;4917753;29;20221;-71
2020/12/25 17:35:45;;;;;;;6.10;3.13;;;5.30;99.90;;;;;;4917708;29;20209;-71
2020/12/25 17:38:11;;;;;;;7.17;3.00;;;5.30;99.90;;;;;;4917471;29;20205;-71
2020/12/25 17:40:37;;;;;;;7.13;3.43;;;5.30;99.90;;;;;;4917095;29;20589;-71
2020/12/25 17:43:04;;;;;;;4.63;3.30;;;5.40;99.90;;;;;;4916902;29;20244;-72
2020/12/25 17:45:31;;;;;;;7.43;2.80;;;5.40;99.90;;;;;;4917359;29;20557;-71
2020/12/25 17:47:57;;;;;;;4.40;2.17;;;5.50;99.90;;;;;;4917172;29;20309;-72
2020/12/25 17:50:23;;;;;;;4.60;2.30;;;5.60;99.90;;;;;;4917780;29;20241;-72
2020/12/25 17:52:49;;;;;;;7.63;2.60;;;5.70;99.90;;;;;;4916522;29;20263;-72
2020/12/25 17:55:16;;;;;;;4.53;1.83;;;5.80;99.90;;;;;;4917026;29;20261;-73
2020/12/25 17:57:42;;;;;;;3.83;2.17;;;5.90;99.90;;;;;;4916816;29;20205;-71
2020/12/25 18:00:08;;;;;;;6.17;2.30;;;5.80;99.90;;;;;;4916715;29;20701;-72
2020/12/25 18:02:35;;;;;;;7.63;2.27;;;5.80;99.90;;;;;;4916725;29;20209;-72
2020/12/25 18:05:01;;;;;;;5.00;2.07;;;5.70;99.90;;;;;;4916738;29;20573;-72
2020/12/25 18:07:27;;;;;;;5.87;2.57;;;5.70;99.90;;;;;;4916595;29;20216;-72
2020/12/25 18:09:53;;;;;;;9.23;2.17;;;5.60;99.90;;;;;;4916833;29;20267;-72
2020/12/25 18:12:20;;;;;;;7.93;2.00;;;5.70;99.90;;;;;;4916733;29;20295;-72
2020/12/25 18:14:46;;;;;;;4.33;2.03;;;5.70;99.90;;;;;;4912549;29;20566;-72
2020/12/25 18:17:12;;;;;;;7.37;2.40;;;5.70;99.90;;;;;;4907661;29;20202;-73
2020/12/25 18:19:39;;;;;;;9.83;3.60;;;5.70;99.90;;;;;;4905360;29;20226;-72
2020/12/25 18:22:09;;;;;;;4.87;1.50;;;5.70;99.90;;;;;;4907919;29;20202;-72
2020/12/25 18:24:35;;;;;;;5.50;1.60;;;5.70;99.90;;;;;;4906432;29;20701;-72
2020/12/25 18:27:01;;;;;;;21.90;9.37;;;5.80;99.90;;;;;;4906415;29;20201;-72
2020/12/25 18:29:27;;;;;;;3.53;2.33;;;5.80;99.90;;;;;;4908007;29;20269;-73
2020/12/25 18:31:54;;;;;;;3.13;2.00;;;5.80;99.90;;;;;;4906750;29;20205;-72
2020/12/25 18:34:20;;;;;;;4.20;2.00;;;5.80;99.90;;;;;;4906554;29;20232;-72
2020/12/25 18:36:47;;;;;;;4.87;2.40;;;5.70;99.90;;;;;;4908070;29;20202;-71
2020/12/25 18:39:13;;;;;;;3.63;1.97;;;5.70;99.90;;;;;;4906277;29;20232;-71
2020/12/25 18:41:39;;;;;;;6.63;2.57;;;5.60;99.90;;;;;;4906516;29;20206;-71
2020/12/25 18:44:05;;;;;;;4.27;2.50;;;5.60;99.90;;;;;;4907575;29;20233;-72
2020/12/25 18:46:32;;;;;;;3.23;1.87;;;5.60;99.90;;;;;;4906103;29;20614;-72
2020/12/25 18:48:58;;;;;;;3.80;2.00;;;5.70;99.90;;;;;;4906521;29;20221;-71
2020/12/25 18:51:24;;;;;;;6.23;3.20;;;5.90;99.90;;;;;;4907097;29;20209;-71
2020/12/25 18:53:51;;;;;;;5.40;2.30;;;6.20;99.90;;;;;;4907394;29;20273;-72
2020/12/25 18:56:17;;;;;;;6.43;2.50;;;6.20;99.90;;;;;;4906584;29;20202;-72
2020/12/25 18:58:44;;;;;;;10.20;3.33;;;6.20;99.90;;;;;;4905953;29;20549;-72
2020/12/25 19:01:11;;;;;;;11.50;4.30;;;6.20;99.90;;;;;;4907646;29;20202;-72
2020/12/25 19:03:37;;;;;;;5.80;2.10;;;6.20;99.90;;;;;;4905807;29;21048;-74
2020/12/25 19:06:03;;;;;;;7.13;2.60;;;6.10;99.90;;;;;;4906310;29;20840;-73
2020/12/25 19:08:30;;;;;;;4.80;2.60;;;6.00;99.90;;;;;;4917363;29;20221;-74
2020/12/25 19:10:57;;;;;;;6.80;2.10;;;5.90;99.90;;;;;;4915180;29;20220;-74
2020/12/25 19:13:23;;;;;;;3.43;1.73;;;5.90;99.90;;;;;;4922095;29;20308;-73
2020/12/25 19:15:51;;;;;;;4.47;1.97;;;5.80;99.90;;;;;;4898149;29;20290;-72
2020/12/25 19:18:17;;;;;;;6.20;2.03;;;5.80;99.90;;;;;;4895312;29;20745;-72
2020/12/25 19:20:44;;;;;;;2.47;1.83;;;5.90;99.90;;;;;;4896317;29;20722;-92
2020/12/25 19:23:10;;;;;;;3.23;1.70;;;5.80;99.90;;;;;;4897343;29;20636;-74
2020/12/25 19:25:36;;;;;;;2.37;1.57;;;5.60;99.90;;;;;;4918302;29;20217;-81
2020/12/25 19:28:04;;;;;;;3.60;1.80;;;5.50;99.90;;;;;;4918432;29;20209;-77
2020/12/25 19:30:30;;;;;;;4.57;1.67;;;5.50;99.90;;;;;;4917716;29;20297;-78
2020/12/25 19:32:57;;;;;;;5.20;2.33;;;5.50;99.90;;;;;;4920397;29;20210;-78
2020/12/25 19:35:23;;;;;;;5.10;2.43;;;5.50;99.90;;;;;;4918264;29;20289;-79
2020/12/25 19:37:49;;;;;;;10.00;2.47;;;5.30;99.90;;;;;;4918288;29;20677;-73
2020/12/25 19:40:15;;;;;;;3.67;2.00;;;5.30;99.90;;;;;;4918521;29;20229;-76
2020/12/25 19:42:41;;;;;;;8.87;2.60;;;5.20;99.90;;;;;;4919615;29;20210;-76
2020/12/25 19:45:08;;;;;;;5.73;2.33;;;5.20;99.90;;;;;;4920030;29;20198;-73
2020/12/25 19:47:35;;;;;;;5.93;2.27;;;5.10;99.90;;;;;;4919806;29;20209;-77
2020/12/25 19:50:01;;;;;;;4.63;2.73;;;5.00;99.90;;;;;;4919577;29;20236;-77
2020/12/25 19:52:28;;;;;;;6.37;2.57;;;5.00;99.90;;;;;;4919536;29;20229;-76
2020/12/25 19:54:55;;;;;;;8.03;2.80;;;5.00;99.90;;;;;;4919458;29;20700;-74
2020/12/25 19:57:22;;;;;;;4.87;2.43;;;4.90;99.90;;;;;;4919654;29;20272;-74
2020/12/25 19:59:48;;;;;;;5.03;2.30;;;4.80;99.90;;;;;;4919590;29;20234;-76
2020/12/25 20:02:15;;;;;;;8.43;2.40;;;4.80;99.90;;;;;;4919399;29;20213;-77
2020/12/25 20:04:41;;;;;;;6.97;2.63;;;4.70;99.90;;;;;;4919415;29;20248;-74
2020/12/25 20:07:08;;;;;;;4.07;2.33;;;4.70;99.90;;;;;;4919659;29;20229;-77
2020/12/25 20:09:34;;;;;;;5.83;2.80;;;4.60;99.90;;;;;;4918892;29;20621;-74
2020/12/25 20:12:00;;;;;;;5.27;3.00;;;4.50;99.90;;;;;;4919285;29;20213;-75
2020/12/25 20:14:26;;;;;;;5.83;2.90;;;4.60;99.90;;;;;;4919042;29;20568;-77
2020/12/25 20:16:52;;;;;;;5.80;2.47;;;4.60;99.90;;;;;;4919407;29;20209;-73
2020/12/25 20:19:19;;;;;;;6.67;2.97;;;4.60;99.90;;;;;;4918855;29;20727;-76
2020/12/25 20:21:47;;;;;;;6.47;3.50;;;4.60;99.90;;;;;;4919232;29;20212;-76
2020/12/25 20:24:13;;;;;;;8.73;3.20;;;4.60;99.90;;;;;;4918590;29;20237;-77
2020/12/25 20:26:39;;;;;;;6.57;2.50;;;4.70;99.90;;;;;;4919103;29;20225;-73
2020/12/25 20:29:05;;;;;;;5.53;2.93;;;4.80;99.90;;;;;;4918995;29;20229;-74
2020/12/25 20:31:32;;;;;;;7.30;2.53;;;4.90;99.90;;;;;;4918973;29;20216;-74
2020/12/25 20:33:58;;;;;;;7.07;3.07;;;4.90;99.90;;;;;;4917735;29;20265;-77
2020/12/25 20:36:27;;;;;;;3.33;2.13;;;4.90;99.90;;;;;;4919181;29;20214;-77
2020/12/25 20:38:53;;;;;;;7.43;3.50;;;4.90;99.90;;;;;;4918790;29;20320;-75
2020/12/25 20:41:20;;;;;;;8.27;3.80;;;5.00;99.90;;;;;;4918661;29;20210;-75
2020/12/25 20:43:46;;;;;;;5.73;3.27;;;5.00;99.90;;;;;;4918615;29;20689;-74
2020/12/25 20:46:13;;;;;;;7.97;3.43;;;5.20;99.90;;;;;;4918381;29;20216;-75
2020/12/25 20:48:40;;;;;;;8.23;3.80;;;5.30;99.90;;;;;;4918500;29;20213;-77
2020/12/25 20:51:07;;;;;;;12.50;4.73;;;5.30;99.90;;;;;;4918651;29;20293;-77
2020/12/25 20:53:34;;;;;;;10.63;4.73;;;5.30;99.90;;;;;;4919062;29;20225;-74
2020/12/25 20:56:00;;;;;;;19.30;6.33;;;5.20;99.90;;;;;;4918457;29;20213;-75
2020/12/25 20:58:26;;;;;;;12.67;6.03;;;5.20;99.90;;;;;;4918343;29;20216;-74
2020/12/25 21:00:52;;;;;;;11.93;5.97;;;5.30;99.90;;;;;;4918124;29;20240;-77
2020/12/25 21:03:19;;;;;;;12.27;5.77;;;5.30;99.90;;;;;;4918173;29;20237;-77
2020/12/25 21:05:45;;;;;;;11.67;5.67;;;5.30;99.90;;;;;;4918235;29;20261;-76
2020/12/25 21:08:11;;;;;;;14.17;6.30;;;5.30;99.90;;;;;;4918143;29;20213;-74
2020/12/25 21:10:39;;;;;;;14.67;6.07;;;5.20;99.90;;;;;;4918104;29;20229;-74
2020/12/25 21:13:06;;;;;;;9.57;5.33;;;5.10;99.90;;;;;;4918053;29;20687;-74
2020/12/25 21:15:32;;;;;;;10.60;5.67;;;5.10;99.90;;;;;;4918403;29;20597;-77
2020/12/25 21:17:58;;;;;;;9.07;5.13;;;5.00;99.90;;;;;;4917997;29;20614;-75
2020/12/25 21:20:24;;;;;;;12.27;6.20;;;4.90;99.90;;;;;;4917871;29;20236;-74
2020/12/25 21:22:51;;;;;;;10.30;5.67;;;4.80;99.90;;;;;;4918033;29;20277;-76
2020/12/25 21:25:17;;;;;;;11.27;5.07;;;4.70;99.90;;;;;;4917794;29;20209;-74
2020/12/25 21:27:45;;;;;;;9.67;5.03;;;4.70;99.90;;;;;;4917864;29;20669;-74
2020/12/25 21:30:11;;;;;;;14.17;5.47;;;4.70;99.90;;;;;;4917667;29;20244;-74
2020/12/25 21:32:37;;;;;;;8.30;5.20;;;4.70;99.90;;;;;;4917884;29;20716;-74
2020/12/25 21:35:03;;;;;;;9.60;4.83;;;4.70;99.90;;;;;;4917967;29;20343;-76
2020/12/25 21:37:30;;;;;;;11.97;5.10;;;4.70;99.90;;;;;;4918194;29;20229;-77
2020/12/25 21:39:56;;;;;;;16.30;4.83;;;4.60;99.90;;;;;;4917579;29;20234;-73
2020/12/25 21:42:22;;;;;;;12.27;5.40;;;4.60;99.90;;;;;;4917800;29;20209;-74
2020/12/25 21:44:49;;;;;;;9.30;5.27;;;4.60;99.90;;;;;;4917174;29;20241;-77
2020/12/25 21:47:19;;;;;;;8.43;4.93;;;4.60;99.90;;;;;;4917467;29;20233;-74